sensor_id;sensor_type;location;lat;lon;timestamp;P1;P2;P0
63305;PMS5003;50735;52.060;1.248;2023-08-21T00:01:58;19;17;
63305;PMS5003;50735;52.060;1.248;2023-08-21T00:04:30;15;14;
63305;PMS5003;50735;52.060;1.248;2023-08-21T00:07:02;15;14;
63305;PMS5003;50735;52.060;1.248;2023-08-21T00:09:34;13;11;
63305;PMS5003;50735;52.060;1.248;2023-08-21T00:12:06;13;11;
63305;PMS5003;50735;52.060;1.248;2023-08-21T00:14:38;13;11;
63305;PMS5003;50735;52.060;1.248;2023-08-21T00:17:10;12;9;
63305;PMS5003;50735;52.060;1.248;2023-08-21T00:19:41;13;11;
63305;PMS5003;50735;52.060;1.248;2023-08-21T00:22:13;9;9;
63305;PMS5003;50735;52.060;1.248;2023-08-21T00:24:45;9;9;
63305;PMS5003;50735;52.060;1.248;2023-08-21T00:27:16;7;7;
63305;PMS5003;50735;52.060;1.248;2023-08-21T00:29:48;9;9;
63305;PMS5003;50735;52.060;1.248;2023-08-21T00:32:21;10;10;
63305;PMS5003;50735;52.060;1.248;2023-08-21T00:34:53;9;9;
63305;PMS5003;50735;52.060;1.248;2023-08-21T00:37:25;7;7;
63305;PMS5003;50735;52.060;1.248;2023-08-21T00:39:56;10;7;
63305;PMS5003;50735;52.060;1.248;2023-08-21T00:42:28;10;8;
63305;PMS5003;50735;52.060;1.248;2023-08-21T00:45:00;10;9;
63305;PMS5003;50735;52.060;1.248;2023-08-21T00:47:32;16;11;
63305;PMS5003;50735;52.060;1.248;2023-08-21T00:50:05;10;8;
63305;PMS5003;50735;52.060;1.248;2023-08-21T00:52:38;8;8;
63305;PMS5003;50735;52.060;1.248;2023-08-21T00:55:11;9;7;
63305;PMS5003;50735;52.060;1.248;2023-08-21T00:57:44;7;7;
63305;PMS5003;50735;52.060;1.248;2023-08-21T01:00:17;10;9;
63305;PMS5003;50735;52.060;1.248;2023-08-21T01:02:49;11;9;
63305;PMS5003;50735;52.060;1.248;2023-08-21T01:05:22;14;11;
63305;PMS5003;50735;52.060;1.248;2023-08-21T01:07:56;8;8;
63305;PMS5003;50735;52.060;1.248;2023-08-21T01:10:38;10;10;
63305;PMS5003;50735;52.060;1.248;2023-08-21T01:13:19;9;9;
63305;PMS5003;50735;52.060;1.248;2023-08-21T01:15:59;9;7;
63305;PMS5003;50735;52.060;1.248;2023-08-21T01:18:31;8;8;
63305;PMS5003;50735;52.060;1.248;2023-08-21T01:21:05;8;8;
63305;PMS5003;50735;52.060;1.248;2023-08-21T01:23:38;10;7;
63305;PMS5003;50735;52.060;1.248;2023-08-21T01:26:09;10;7;
63305;PMS5003;50735;52.060;1.248;2023-08-21T01:28:41;11;8;
63305;PMS5003;50735;52.060;1.248;2023-08-21T01:31:15;7;6;
63305;PMS5003;50735;52.060;1.248;2023-08-21T01:33:53;9;8;
63305;PMS5003;50735;52.060;1.248;2023-08-21T01:36:29;14;11;
63305;PMS5003;50735;52.060;1.248;2023-08-21T01:39:02;8;8;
63305;PMS5003;50735;52.060;1.248;2023-08-21T01:41:34;8;7;
63305;PMS5003;50735;52.060;1.248;2023-08-21T01:44:06;8;7;
63305;PMS5003;50735;52.060;1.248;2023-08-21T01:46:38;7;7;
63305;PMS5003;50735;52.060;1.248;2023-08-21T01:49:10;7;7;
63305;PMS5003;50735;52.060;1.248;2023-08-21T01:51:41;7;7;
63305;PMS5003;50735;52.060;1.248;2023-08-21T01:54:13;7;7;
63305;PMS5003;50735;52.060;1.248;2023-08-21T01:56:45;4;4;
63305;PMS5003;50735;52.060;1.248;2023-08-21T01:59:17;9;8;
63305;PMS5003;50735;52.060;1.248;2023-08-21T02:01:51;8;7;
63305;PMS5003;50735;52.060;1.248;2023-08-21T02:04:22;9;9;
63305;PMS5003;50735;52.060;1.248;2023-08-21T02:06:54;7;7;
63305;PMS5003;50735;52.060;1.248;2023-08-21T02:09:26;5;5;
63305;PMS5003;50735;52.060;1.248;2023-08-21T02:11:57;9;9;
63305;PMS5003;50735;52.060;1.248;2023-08-21T02:14:29;9;8;
63305;PMS5003;50735;52.060;1.248;2023-08-21T02:17:01;11;7;
63305;PMS5003;50735;52.060;1.248;2023-08-21T02:19:32;16;13;
63305;PMS5003;50735;52.060;1.248;2023-08-21T02:22:04;8;7;
63305;PMS5003;50735;52.060;1.248;2023-08-21T02:24:36;5;5;
63305;PMS5003;50735;52.060;1.248;2023-08-21T02:27:08;7;7;
63305;PMS5003;50735;52.060;1.248;2023-08-21T02:29:41;10;9;
63305;PMS5003;50735;52.060;1.248;2023-08-21T02:32:12;9;7;
63305;PMS5003;50735;52.060;1.248;2023-08-21T02:34:44;5;5;
63305;PMS5003;50735;52.060;1.248;2023-08-21T02:37:16;9;7;
63305;PMS5003;50735;52.060;1.248;2023-08-21T02:39:48;11;8;
63305;PMS5003;50735;52.060;1.248;2023-08-21T02:42:19;11;9;
63305;PMS5003;50735;52.060;1.248;2023-08-21T02:44:51;7;7;
63305;PMS5003;50735;52.060;1.248;2023-08-21T02:47:23;9;9;
63305;PMS5003;50735;52.060;1.248;2023-08-21T02:49:55;10;7;
63305;PMS5003;50735;52.060;1.248;2023-08-21T02:52:27;10;8;
63305;PMS5003;50735;52.060;1.248;2023-08-21T02:54:58;7;7;
63305;PMS5003;50735;52.060;1.248;2023-08-21T02:57:30;9;7;
63305;PMS5003;50735;52.060;1.248;2023-08-21T03:00:03;12;11;
63305;PMS5003;50735;52.060;1.248;2023-08-21T03:02:36;7;5;
63305;PMS5003;50735;52.060;1.248;2023-08-21T03:05:08;12;8;
63305;PMS5003;50735;52.060;1.248;2023-08-21T03:07:40;9;9;
63305;PMS5003;50735;52.060;1.248;2023-08-21T03:10:11;12;11;
63305;PMS5003;50735;52.060;1.248;2023-08-21T03:12:43;8;8;
63305;PMS5003;50735;52.060;1.248;2023-08-21T03:15:15;7;7;
63305;PMS5003;50735;52.060;1.248;2023-08-21T03:17:47;9;9;
63305;PMS5003;50735;52.060;1.248;2023-08-21T03:20:18;8;8;
63305;PMS5003;50735;52.060;1.248;2023-08-21T03:22:50;7;7;
63305;PMS5003;50735;52.060;1.248;2023-08-21T03:25:22;11;8;
63305;PMS5003;50735;52.060;1.248;2023-08-21T03:27:53;8;7;
63305;PMS5003;50735;52.060;1.248;2023-08-21T03:30:25;8;8;
63305;PMS5003;50735;52.060;1.248;2023-08-21T03:32:57;9;8;
63305;PMS5003;50735;52.060;1.248;2023-08-21T03:35:28;11;11;
63305;PMS5003;50735;52.060;1.248;2023-08-21T03:38:00;15;9;
63305;PMS5003;50735;52.060;1.248;2023-08-21T03:40:32;8;8;
63305;PMS5003;50735;52.060;1.248;2023-08-21T03:43:04;9;9;
63305;PMS5003;50735;52.060;1.248;2023-08-21T03:45:36;11;7;
63305;PMS5003;50735;52.060;1.248;2023-08-21T03:48:08;11;11;
63305;PMS5003;50735;52.060;1.248;2023-08-21T03:50:40;8;8;
63305;PMS5003;50735;52.060;1.248;2023-08-21T03:53:12;9;8;
63305;PMS5003;50735;52.060;1.248;2023-08-21T03:55:43;6;6;
63305;PMS5003;50735;52.060;1.248;2023-08-21T03:58:15;9;9;
63305;PMS5003;50735;52.060;1.248;2023-08-21T04:00:47;10;7;
63305;PMS5003;50735;52.060;1.248;2023-08-21T04:03:18;7;7;
63305;PMS5003;50735;52.060;1.248;2023-08-21T04:05:52;7;7;
63305;PMS5003;50735;52.060;1.248;2023-08-21T04:08:24;10;10;
63305;PMS5003;50735;52.060;1.248;2023-08-21T04:10:56;11;8;
63305;PMS5003;50735;52.060;1.248;2023-08-21T04:13:28;9;8;
63305;PMS5003;50735;52.060;1.248;2023-08-21T04:16:00;8;7;
63305;PMS5003;50735;52.060;1.248;2023-08-21T04:18:31;8;7;
63305;PMS5003;50735;52.060;1.248;2023-08-21T04:21:03;8;7;
63305;PMS5003;50735;52.060;1.248;2023-08-21T04:23:35;13;10;
63305;PMS5003;50735;52.060;1.248;2023-08-21T04:26:07;9;8;
63305;PMS5003;50735;52.060;1.248;2023-08-21T04:28:39;8;8;
63305;PMS5003;50735;52.060;1.248;2023-08-21T04:31:10;8;5;
63305;PMS5003;50735;52.060;1.248;2023-08-21T04:33:42;8;7;
63305;PMS5003;50735;52.060;1.248;2023-08-21T04:36:14;12;9;
63305;PMS5003;50735;52.060;1.248;2023-08-21T04:38:46;10;8;
63305;PMS5003;50735;52.060;1.248;2023-08-21T04:41:18;12;9;
63305;PMS5003;50735;52.060;1.248;2023-08-21T04:43:50;13;7;
63305;PMS5003;50735;52.060;1.248;2023-08-21T04:46:22;9;8;
63305;PMS5003;50735;52.060;1.248;2023-08-21T04:48:53;10;9;
63305;PMS5003;50735;52.060;1.248;2023-08-21T04:51:25;9;7;
63305;PMS5003;50735;52.060;1.248;2023-08-21T04:53:57;10;9;
63305;PMS5003;50735;52.060;1.248;2023-08-21T04:56:29;10;8;
63305;PMS5003;50735;52.060;1.248;2023-08-21T04:59:01;9;8;
63305;PMS5003;50735;52.060;1.248;2023-08-21T05:01:33;10;8;
63305;PMS5003;50735;52.060;1.248;2023-08-21T05:04:05;11;8;
63305;PMS5003;50735;52.060;1.248;2023-08-21T05:06:36;12;6;
63305;PMS5003;50735;52.060;1.248;2023-08-21T05:09:08;6;6;
63305;PMS5003;50735;52.060;1.248;2023-08-21T05:11:40;10;8;
63305;PMS5003;50735;52.060;1.248;2023-08-21T05:14:11;7;7;
63305;PMS5003;50735;52.060;1.248;2023-08-21T05:16:43;8;8;
63305;PMS5003;50735;52.060;1.248;2023-08-21T05:19:15;11;7;
63305;PMS5003;50735;52.060;1.248;2023-08-21T05:21:47;8;7;
63305;PMS5003;50735;52.060;1.248;2023-08-21T05:24:19;11;8;
63305;PMS5003;50735;52.060;1.248;2023-08-21T05:26:50;10;7;
63305;PMS5003;50735;52.060;1.248;2023-08-21T05:29:22;9;9;
63305;PMS5003;50735;52.060;1.248;2023-08-21T05:31:54;9;8;
63305;PMS5003;50735;52.060;1.248;2023-08-21T05:34:26;12;10;
63305;PMS5003;50735;52.060;1.248;2023-08-21T05:36:57;9;6;
63305;PMS5003;50735;52.060;1.248;2023-08-21T05:39:29;10;8;
63305;PMS5003;50735;52.060;1.248;2023-08-21T05:42:01;9;8;
63305;PMS5003;50735;52.060;1.248;2023-08-21T05:44:33;8;7;
63305;PMS5003;50735;52.060;1.248;2023-08-21T05:47:05;8;6;
63305;PMS5003;50735;52.060;1.248;2023-08-21T05:49:36;9;9;
63305;PMS5003;50735;52.060;1.248;2023-08-21T05:52:08;10;10;
63305;PMS5003;50735;52.060;1.248;2023-08-21T05:54:41;8;8;
63305;PMS5003;50735;52.060;1.248;2023-08-21T05:57:12;8;7;
63305;PMS5003;50735;52.060;1.248;2023-08-21T05:59:45;18;10;
63305;PMS5003;50735;52.060;1.248;2023-08-21T06:02:18;9;8;
63305;PMS5003;50735;52.060;1.248;2023-08-21T06:04:50;17;13;
63305;PMS5003;50735;52.060;1.248;2023-08-21T06:07:22;10;9;
63305;PMS5003;50735;52.060;1.248;2023-08-21T06:09:53;6;6;
63305;PMS5003;50735;52.060;1.248;2023-08-21T06:12:25;7;7;
63305;PMS5003;50735;52.060;1.248;2023-08-21T06:14:57;10;8;
63305;PMS5003;50735;52.060;1.248;2023-08-21T06:17:29;12;8;
63305;PMS5003;50735;52.060;1.248;2023-08-21T06:20:01;9;9;
63305;PMS5003;50735;52.060;1.248;2023-08-21T06:22:32;10;8;
63305;PMS5003;50735;52.060;1.248;2023-08-21T06:25:04;9;8;
63305;PMS5003;50735;52.060;1.248;2023-08-21T06:27:36;7;7;
63305;PMS5003;50735;52.060;1.248;2023-08-21T06:30:08;8;7;
63305;PMS5003;50735;52.060;1.248;2023-08-21T06:32:41;9;6;
63305;PMS5003;50735;52.060;1.248;2023-08-21T06:35:12;8;7;
63305;PMS5003;50735;52.060;1.248;2023-08-21T06:37:44;9;6;
63305;PMS5003;50735;52.060;1.248;2023-08-21T06:40:16;9;6;
63305;PMS5003;50735;52.060;1.248;2023-08-21T06:42:47;6;6;
63305;PMS5003;50735;52.060;1.248;2023-08-21T06:45:19;7;6;
63305;PMS5003;50735;52.060;1.248;2023-08-21T06:47:51;7;7;
63305;PMS5003;50735;52.060;1.248;2023-08-21T06:50:24;7;7;
63305;PMS5003;50735;52.060;1.248;2023-08-21T06:52:56;9;7;
63305;PMS5003;50735;52.060;1.248;2023-08-21T06:55:28;11;6;
63305;PMS5003;50735;52.060;1.248;2023-08-21T06:58:00;4;4;
63305;PMS5003;50735;52.060;1.248;2023-08-21T07:00:32;11;7;
63305;PMS5003;50735;52.060;1.248;2023-08-21T07:03:04;10;7;
63305;PMS5003;50735;52.060;1.248;2023-08-21T07:05:36;12;6;
63305;PMS5003;50735;52.060;1.248;2023-08-21T07:08:08;5;5;
63305;PMS5003;50735;52.060;1.248;2023-08-21T07:10:40;10;5;
63305;PMS5003;50735;52.060;1.248;2023-08-21T07:13:12;6;6;
63305;PMS5003;50735;52.060;1.248;2023-08-21T07:15:44;6;6;
63305;PMS5003;50735;52.060;1.248;2023-08-21T07:18:16;6;6;
63305;PMS5003;50735;52.060;1.248;2023-08-21T07:20:48;7;7;
63305;PMS5003;50735;52.060;1.248;2023-08-21T07:23:23;5;5;
63305;PMS5003;50735;52.060;1.248;2023-08-21T07:25:56;6;5;
63305;PMS5003;50735;52.060;1.248;2023-08-21T07:28:29;4;4;
63305;PMS5003;50735;52.060;1.248;2023-08-21T07:31:01;11;7;
63305;PMS5003;50735;52.060;1.248;2023-08-21T07:33:33;4;4;
63305;PMS5003;50735;52.060;1.248;2023-08-21T07:36:04;6;4;
63305;PMS5003;50735;52.060;1.248;2023-08-21T07:38:37;6;6;
63305;PMS5003;50735;52.060;1.248;2023-08-21T07:41:09;5;5;
63305;PMS5003;50735;52.060;1.248;2023-08-21T07:43:42;7;4;
63305;PMS5003;50735;52.060;1.248;2023-08-21T07:46:15;6;5;
63305;PMS5003;50735;52.060;1.248;2023-08-21T07:48:46;8;5;
63305;PMS5003;50735;52.060;1.248;2023-08-21T07:51:18;4;4;
63305;PMS5003;50735;52.060;1.248;2023-08-21T07:53:50;4;4;
63305;PMS5003;50735;52.060;1.248;2023-08-21T07:56:21;5;5;
63305;PMS5003;50735;52.060;1.248;2023-08-21T07:58:53;7;5;
63305;PMS5003;50735;52.060;1.248;2023-08-21T08:01:25;5;2;
63305;PMS5003;50735;52.060;1.248;2023-08-21T08:03:57;3;3;
63305;PMS5003;50735;52.060;1.248;2023-08-21T08:06:28;4;4;
63305;PMS5003;50735;52.060;1.248;2023-08-21T08:09:01;6;4;
63305;PMS5003;50735;52.060;1.248;2023-08-21T08:11:32;6;4;
63305;PMS5003;50735;52.060;1.248;2023-08-21T08:14:04;3;3;
63305;PMS5003;50735;52.060;1.248;2023-08-21T08:16:36;5;5;
63305;PMS5003;50735;52.060;1.248;2023-08-21T08:19:08;6;5;
63305;PMS5003;50735;52.060;1.248;2023-08-21T08:21:39;3;3;
63305;PMS5003;50735;52.060;1.248;2023-08-21T08:24:11;5;4;
63305;PMS5003;50735;52.060;1.248;2023-08-21T08:26:44;4;4;
63305;PMS5003;50735;52.060;1.248;2023-08-21T08:29:15;3;3;
63305;PMS5003;50735;52.060;1.248;2023-08-21T08:31:47;4;4;
63305;PMS5003;50735;52.060;1.248;2023-08-21T08:34:19;6;5;
63305;PMS5003;50735;52.060;1.248;2023-08-21T08:36:51;5;5;
63305;PMS5003;50735;52.060;1.248;2023-08-21T08:39:23;3;3;
63305;PMS5003;50735;52.060;1.248;2023-08-21T08:41:56;6;3;
63305;PMS5003;50735;52.060;1.248;2023-08-21T08:44:33;3;3;
63305;PMS5003;50735;52.060;1.248;2023-08-21T08:47:06;5;4;
63305;PMS5003;50735;52.060;1.248;2023-08-21T08:49:39;3;3;
63305;PMS5003;50735;52.060;1.248;2023-08-21T08:52:11;7;4;
63305;PMS5003;50735;52.060;1.248;2023-08-21T08:54:43;4;4;
63305;PMS5003;50735;52.060;1.248;2023-08-21T08:57:16;4;4;
63305;PMS5003;50735;52.060;1.248;2023-08-21T08:59:47;2;2;
63305;PMS5003;50735;52.060;1.248;2023-08-21T09:02:19;2;2;
63305;PMS5003;50735;52.060;1.248;2023-08-21T09:04:51;5;3;
63305;PMS5003;50735;52.060;1.248;2023-08-21T09:07:25;3;3;
63305;PMS5003;50735;52.060;1.248;2023-08-21T09:09:57;6;4;
63305;PMS5003;50735;52.060;1.248;2023-08-21T09:12:31;8;5;
63305;PMS5003;50735;52.060;1.248;2023-08-21T09:15:06;6;3;
63305;PMS5003;50735;52.060;1.248;2023-08-21T09:17:38;5;3;
63305;PMS5003;50735;52.060;1.248;2023-08-21T09:20:10;4;3;
63305;PMS5003;50735;52.060;1.248;2023-08-21T09:22:42;7;3;
63305;PMS5003;50735;52.060;1.248;2023-08-21T09:25:25;6;4;
63305;PMS5003;50735;52.060;1.248;2023-08-21T09:27:57;7;4;
63305;PMS5003;50735;52.060;1.248;2023-08-21T09:30:29;5;5;
63305;PMS5003;50735;52.060;1.248;2023-08-21T09:33:01;6;6;
63305;PMS5003;50735;52.060;1.248;2023-08-21T09:35:33;4;4;
63305;PMS5003;50735;52.060;1.248;2023-08-21T09:38:04;5;3;
63305;PMS5003;50735;52.060;1.248;2023-08-21T09:40:38;3;3;
63305;PMS5003;50735;52.060;1.248;2023-08-21T09:43:10;4;3;
63305;PMS5003;50735;52.060;1.248;2023-08-21T09:45:45;4;4;
63305;PMS5003;50735;52.060;1.248;2023-08-21T09:48:18;4;4;
63305;PMS5003;50735;52.060;1.248;2023-08-21T09:50:53;3;2;
63305;PMS5003;50735;52.060;1.248;2023-08-21T09:53:25;4;3;
63305;PMS5003;50735;52.060;1.248;2023-08-21T09:55:56;4;4;
63305;PMS5003;50735;52.060;1.248;2023-08-21T09:58:31;5;3;
63305;PMS5003;50735;52.060;1.248;2023-08-21T10:01:04;5;3;
63305;PMS5003;50735;52.060;1.248;2023-08-21T10:03:37;4;4;
63305;PMS5003;50735;52.060;1.248;2023-08-21T10:06:10;3;3;
63305;PMS5003;50735;52.060;1.248;2023-08-21T10:08:43;5;4;
63305;PMS5003;50735;52.060;1.248;2023-08-21T10:11:17;4;4;
63305;PMS5003;50735;52.060;1.248;2023-08-21T10:13:51;3;3;
63305;PMS5003;50735;52.060;1.248;2023-08-21T10:16:24;4;2;
63305;PMS5003;50735;52.060;1.248;2023-08-21T10:18:57;3;3;
63305;PMS5003;50735;52.060;1.248;2023-08-21T10:21:35;3;3;
63305;PMS5003;50735;52.060;1.248;2023-08-21T10:24:07;4;4;
63305;PMS5003;50735;52.060;1.248;2023-08-21T10:26:39;3;3;
63305;PMS5003;50735;52.060;1.248;2023-08-21T10:29:11;3;3;
63305;PMS5003;50735;52.060;1.248;2023-08-21T10:31:43;5;4;
63305;PMS5003;50735;52.060;1.248;2023-08-21T10:34:15;2;2;
63305;PMS5003;50735;52.060;1.248;2023-08-21T10:37:07;5;5;
63305;PMS5003;50735;52.060;1.248;2023-08-21T10:39:53;5;3;
63305;PMS5003;50735;52.060;1.248;2023-08-21T10:42:42;4;4;
63305;PMS5003;50735;52.060;1.248;2023-08-21T10:45:14;5;4;
63305;PMS5003;50735;52.060;1.248;2023-08-21T10:47:45;2;2;
63305;PMS5003;50735;52.060;1.248;2023-08-21T10:50:17;3;3;
63305;PMS5003;50735;52.060;1.248;2023-08-21T10:52:49;6;3;
63305;PMS5003;50735;52.060;1.248;2023-08-21T10:55:23;4;4;
63305;PMS5003;50735;52.060;1.248;2023-08-21T10:57:55;5;4;
63305;PMS5003;50735;52.060;1.248;2023-08-21T11:00:26;4;4;
63305;PMS5003;50735;52.060;1.248;2023-08-21T11:02:58;5;5;
63305;PMS5003;50735;52.060;1.248;2023-08-21T11:05:30;5;5;
63305;PMS5003;50735;52.060;1.248;2023-08-21T11:08:01;6;6;
63305;PMS5003;50735;52.060;1.248;2023-08-21T11:10:34;9;7;
63305;PMS5003;50735;52.060;1.248;2023-08-21T11:13:06;8;7;
63305;PMS5003;50735;52.060;1.248;2023-08-21T11:15:39;7;7;
63305;PMS5003;50735;52.060;1.248;2023-08-21T11:18:11;7;5;
63305;PMS5003;50735;52.060;1.248;2023-08-21T11:20:42;7;6;
63305;PMS5003;50735;52.060;1.248;2023-08-21T11:23:14;5;5;
63305;PMS5003;50735;52.060;1.248;2023-08-21T11:25:45;9;9;
63305;PMS5003;50735;52.060;1.248;2023-08-21T11:28:17;10;10;
63305;PMS5003;50735;52.060;1.248;2023-08-21T11:30:49;11;8;
63305;PMS5003;50735;52.060;1.248;2023-08-21T11:33:20;10;10;
63305;PMS5003;50735;52.060;1.248;2023-08-21T11:35:52;11;10;
63305;PMS5003;50735;52.060;1.248;2023-08-21T11:38:25;10;10;
63305;PMS5003;50735;52.060;1.248;2023-08-21T11:40:59;10;8;
63305;PMS5003;50735;52.060;1.248;2023-08-21T11:43:35;13;11;
63305;PMS5003;50735;52.060;1.248;2023-08-21T11:46:08;10;9;
63305;PMS5003;50735;52.060;1.248;2023-08-21T11:48:41;12;12;
63305;PMS5003;50735;52.060;1.248;2023-08-21T11:51:13;11;11;
63305;PMS5003;50735;52.060;1.248;2023-08-21T11:53:45;12;9;
63305;PMS5003;50735;52.060;1.248;2023-08-21T11:56:19;13;11;
63305;PMS5003;50735;52.060;1.248;2023-08-21T11:58:51;11;11;
63305;PMS5003;50735;52.060;1.248;2023-08-21T12:01:22;9;9;
63305;PMS5003;50735;52.060;1.248;2023-08-21T12:03:54;11;8;
63305;PMS5003;50735;52.060;1.248;2023-08-21T12:06:26;12;11;
63305;PMS5003;50735;52.060;1.248;2023-08-21T12:08:57;12;11;
63305;PMS5003;50735;52.060;1.248;2023-08-21T12:11:29;11;9;
63305;PMS5003;50735;52.060;1.248;2023-08-21T12:14:01;9;9;
63305;PMS5003;50735;52.060;1.248;2023-08-21T12:16:32;10;10;
63305;PMS5003;50735;52.060;1.248;2023-08-21T12:19:05;10;9;
63305;PMS5003;50735;52.060;1.248;2023-08-21T12:21:36;9;9;
63305;PMS5003;50735;52.060;1.248;2023-08-21T12:24:09;11;11;
63305;PMS5003;50735;52.060;1.248;2023-08-21T12:26:41;9;9;
63305;PMS5003;50735;52.060;1.248;2023-08-21T12:29:13;15;13;
63305;PMS5003;50735;52.060;1.248;2023-08-21T12:31:46;12;8;
63305;PMS5003;50735;52.060;1.248;2023-08-21T12:34:17;7;7;
63305;PMS5003;50735;52.060;1.248;2023-08-21T12:36:49;14;13;
63305;PMS5003;50735;52.060;1.248;2023-08-21T12:39:21;11;10;
63305;PMS5003;50735;52.060;1.248;2023-08-21T12:41:53;11;9;
63305;PMS5003;50735;52.060;1.248;2023-08-21T12:44:25;9;9;
63305;PMS5003;50735;52.060;1.248;2023-08-21T12:46:57;9;7;
63305;PMS5003;50735;52.060;1.248;2023-08-21T12:49:29;10;10;
63305;PMS5003;50735;52.060;1.248;2023-08-21T12:52:00;11;8;
63305;PMS5003;50735;52.060;1.248;2023-08-21T12:54:32;8;6;
63305;PMS5003;50735;52.060;1.248;2023-08-21T12:57:04;7;6;
63305;PMS5003;50735;52.060;1.248;2023-08-21T12:59:36;9;6;
63305;PMS5003;50735;52.060;1.248;2023-08-21T13:02:09;7;7;
63305;PMS5003;50735;52.060;1.248;2023-08-21T13:04:40;6;6;
63305;PMS5003;50735;52.060;1.248;2023-08-21T13:07:12;8;8;
63305;PMS5003;50735;52.060;1.248;2023-08-21T13:09:44;5;5;
63305;PMS5003;50735;52.060;1.248;2023-08-21T13:12:16;6;6;
63305;PMS5003;50735;52.060;1.248;2023-08-21T13:14:47;11;7;
63305;PMS5003;50735;52.060;1.248;2023-08-21T13:17:19;9;9;
63305;PMS5003;50735;52.060;1.248;2023-08-21T13:19:51;7;5;
63305;PMS5003;50735;52.060;1.248;2023-08-21T13:22:22;7;5;
63305;PMS5003;50735;52.060;1.248;2023-08-21T13:24:54;7;7;
63305;PMS5003;50735;52.060;1.248;2023-08-21T13:27:26;9;8;
63305;PMS5003;50735;52.060;1.248;2023-08-21T13:29:57;8;6;
63305;PMS5003;50735;52.060;1.248;2023-08-21T13:32:29;10;9;
63305;PMS5003;50735;52.060;1.248;2023-08-21T13:35:01;10;7;
63305;PMS5003;50735;52.060;1.248;2023-08-21T13:37:32;10;7;
63305;PMS5003;50735;52.060;1.248;2023-08-21T13:40:05;9;8;
63305;PMS5003;50735;52.060;1.248;2023-08-21T13:42:37;7;5;
63305;PMS5003;50735;52.060;1.248;2023-08-21T13:45:10;9;7;
63305;PMS5003;50735;52.060;1.248;2023-08-21T13:47:43;8;8;
63305;PMS5003;50735;52.060;1.248;2023-08-21T13:50:17;6;6;
63305;PMS5003;50735;52.060;1.248;2023-08-21T13:52:50;7;7;
63305;PMS5003;50735;52.060;1.248;2023-08-21T13:55:22;7;5;
63305;PMS5003;50735;52.060;1.248;2023-08-21T13:57:53;10;7;
63305;PMS5003;50735;52.060;1.248;2023-08-21T14:00:25;6;6;
63305;PMS5003;50735;52.060;1.248;2023-08-21T14:02:56;10;9;
63305;PMS5003;50735;52.060;1.248;2023-08-21T14:05:28;10;6;
63305;PMS5003;50735;52.060;1.248;2023-08-21T14:08:00;11;7;
63305;PMS5003;50735;52.060;1.248;2023-08-21T14:10:31;6;6;
63305;PMS5003;50735;52.060;1.248;2023-08-21T14:13:03;7;7;
63305;PMS5003;50735;52.060;1.248;2023-08-21T14:15:35;9;9;
63305;PMS5003;50735;52.060;1.248;2023-08-21T14:18:07;8;7;
63305;PMS5003;50735;52.060;1.248;2023-08-21T14:20:39;8;8;
63305;PMS5003;50735;52.060;1.248;2023-08-21T14:23:10;8;8;
63305;PMS5003;50735;52.060;1.248;2023-08-21T14:25:42;7;6;
63305;PMS5003;50735;52.060;1.248;2023-08-21T14:28:14;7;7;
63305;PMS5003;50735;52.060;1.248;2023-08-21T14:30:45;13;10;
63305;PMS5003;50735;52.060;1.248;2023-08-21T14:33:17;9;8;
63305;PMS5003;50735;52.060;1.248;2023-08-21T14:35:49;10;10;
63305;PMS5003;50735;52.060;1.248;2023-08-21T14:38:20;8;8;
63305;PMS5003;50735;52.060;1.248;2023-08-21T14:40:52;9;9;
63305;PMS5003;50735;52.060;1.248;2023-08-21T14:43:24;9;9;
63305;PMS5003;50735;52.060;1.248;2023-08-21T14:45:56;10;9;
63305;PMS5003;50735;52.060;1.248;2023-08-21T14:48:28;10;9;
63305;PMS5003;50735;52.060;1.248;2023-08-21T14:50:59;19;13;
63305;PMS5003;50735;52.060;1.248;2023-08-21T14:53:31;11;8;
63305;PMS5003;50735;52.060;1.248;2023-08-21T14:56:03;10;10;
63305;PMS5003;50735;52.060;1.248;2023-08-21T14:58:35;8;7;
63305;PMS5003;50735;52.060;1.248;2023-08-21T15:01:07;10;8;
63305;PMS5003;50735;52.060;1.248;2023-08-21T15:03:39;6;6;
63305;PMS5003;50735;52.060;1.248;2023-08-21T15:06:11;9;9;
63305;PMS5003;50735;52.060;1.248;2023-08-21T15:08:43;4;4;
63305;PMS5003;50735;52.060;1.248;2023-08-21T15:11:14;8;8;
63305;PMS5003;50735;52.060;1.248;2023-08-21T15:13:46;9;8;
63305;PMS5003;50735;52.060;1.248;2023-08-21T15:16:18;9;9;
63305;PMS5003;50735;52.060;1.248;2023-08-21T15:18:49;6;6;
63305;PMS5003;50735;52.060;1.248;2023-08-21T15:21:21;7;7;
63305;PMS5003;50735;52.060;1.248;2023-08-21T15:23:53;7;7;
63305;PMS5003;50735;52.060;1.248;2023-08-21T15:26:24;11;10;
63305;PMS5003;50735;52.060;1.248;2023-08-21T15:28:56;8;7;
63305;PMS5003;50735;52.060;1.248;2023-08-21T15:31:28;13;11;
63305;PMS5003;50735;52.060;1.248;2023-08-21T15:33:59;11;8;
63305;PMS5003;50735;52.060;1.248;2023-08-21T15:36:31;15;12;
63305;PMS5003;50735;52.060;1.248;2023-08-21T15:39:04;8;8;
63305;PMS5003;50735;52.060;1.248;2023-08-21T15:41:36;14;11;
63305;PMS5003;50735;52.060;1.248;2023-08-21T15:44:07;12;11;
63305;PMS5003;50735;52.060;1.248;2023-08-21T15:46:39;14;12;
63305;PMS5003;50735;52.060;1.248;2023-08-21T15:49:11;16;15;
63305;PMS5003;50735;52.060;1.248;2023-08-21T15:51:43;16;15;
63305;PMS5003;50735;52.060;1.248;2023-08-21T15:54:18;12;12;
63305;PMS5003;50735;52.060;1.248;2023-08-21T15:56:50;15;13;
63305;PMS5003;50735;52.060;1.248;2023-08-21T15:59:22;16;15;
63305;PMS5003;50735;52.060;1.248;2023-08-21T16:01:54;17;14;
63305;PMS5003;50735;52.060;1.248;2023-08-21T16:04:26;11;11;
63305;PMS5003;50735;52.060;1.248;2023-08-21T16:06:58;14;12;
63305;PMS5003;50735;52.060;1.248;2023-08-21T16:09:30;24;21;
63305;PMS5003;50735;52.060;1.248;2023-08-21T16:12:02;15;15;
63305;PMS5003;50735;52.060;1.248;2023-08-21T16:14:34;17;14;
63305;PMS5003;50735;52.060;1.248;2023-08-21T16:17:05;17;13;
63305;PMS5003;50735;52.060;1.248;2023-08-21T16:19:38;17;17;
63305;PMS5003;50735;52.060;1.248;2023-08-21T16:22:09;14;12;
63305;PMS5003;50735;52.060;1.248;2023-08-21T16:24:42;16;14;
63305;PMS5003;50735;52.060;1.248;2023-08-21T16:27:14;13;13;
63305;PMS5003;50735;52.060;1.248;2023-08-21T16:29:46;13;13;
63305;PMS5003;50735;52.060;1.248;2023-08-21T16:32:18;13;13;
63305;PMS5003;50735;52.060;1.248;2023-08-21T16:34:50;13;13;
63305;PMS5003;50735;52.060;1.248;2023-08-21T16:37:22;15;13;
63305;PMS5003;50735;52.060;1.248;2023-08-21T16:39:54;15;15;
63305;PMS5003;50735;52.060;1.248;2023-08-21T16:42:25;14;14;
63305;PMS5003;50735;52.060;1.248;2023-08-21T16:44:57;16;15;
63305;PMS5003;50735;52.060;1.248;2023-08-21T16:47:29;13;13;
63305;PMS5003;50735;52.060;1.248;2023-08-21T16:50:01;15;13;
63305;PMS5003;50735;52.060;1.248;2023-08-21T16:52:33;18;14;
63305;PMS5003;50735;52.060;1.248;2023-08-21T16:55:05;11;9;
63305;PMS5003;50735;52.060;1.248;2023-08-21T16:57:37;11;9;
63305;PMS5003;50735;52.060;1.248;2023-08-21T17:00:09;12;10;
63305;PMS5003;50735;52.060;1.248;2023-08-21T17:02:41;19;15;
63305;PMS5003;50735;52.060;1.248;2023-08-21T17:05:14;17;15;
63305;PMS5003;50735;52.060;1.248;2023-08-21T17:07:45;17;14;
63305;PMS5003;50735;52.060;1.248;2023-08-21T17:10:17;11;11;
63305;PMS5003;50735;52.060;1.248;2023-08-21T17:12:49;11;11;
63305;PMS5003;50735;52.060;1.248;2023-08-21T17:15:21;12;11;